sensor_id;sensor_type;location;lat;lon;timestamp;pressure;altitude;pressure_sealevel;temperature;humidity
45327;BME280;31062;49.678;24.560;2022-07-06T00:02:07;97738.97;;;20.12;73.38
45327;BME280;31062;49.678;24.560;2022-07-06T00:04:52;97880.31;;;21.17;73.34
45327;BME280;31062;49.678;24.560;2022-07-06T00:07:38;97870.41;;;21.16;73.32
45327;BME280;31062;49.678;24.560;2022-07-06T00:10:24;97870.25;;;21.12;73.16
45327;BME280;31062;49.678;24.560;2022-07-06T00:13:10;97859.59;;;21.08;73.50
45327;BME280;31062;49.678;24.560;2022-07-06T00:15:55;97834.41;;;20.91;73.54
45327;BME280;31062;49.678;24.560;2022-07-06T00:18:41;97848.91;;;21.05;73.54
45327;BME280;31062;49.678;24.560;2022-07-06T00:21:27;97843.16;;;21.01;73.79
45327;BME280;31062;49.678;24.560;2022-07-06T00:24:12;97856.47;;;20.98;74.02
45327;BME280;31062;49.678;24.560;2022-07-06T00:26:58;97858.50;;;20.96;74.13
45327;BME280;31062;49.678;24.560;2022-07-06T00:29:44;97836.78;;;20.76;74.22
45327;BME280;31062;49.678;24.560;2022-07-06T00:32:29;97852.50;;;20.84;74.49
45327;BME280;31062;49.678;24.560;2022-07-06T00:35:14;97689.13;;;19.71;74.47
45327;BME280;31062;49.678;24.560;2022-07-06T00:38:00;97749.91;;;20.23;74.39
45327;BME280;31062;49.678;24.560;2022-07-06T00:40:45;97868.59;;;21.03;74.29
45327;BME280;31062;49.678;24.560;2022-07-06T00:44:07;97855.88;;;21.02;74.24
45327;BME280;31062;49.678;24.560;2022-07-06T00:46:54;97782.44;;;20.50;74.54
45327;BME280;31062;49.678;24.560;2022-07-06T00:49:40;97704.31;;;19.83;74.54
45327;BME280;31062;49.678;24.560;2022-07-06T00:55:36;97856.63;;;20.59;75.58
45327;BME280;31062;49.678;24.560;2022-07-06T00:58:24;97725.53;;;19.67;75.75
45327;BME280;31062;49.678;24.560;2022-07-06T01:01:10;97836.94;;;20.37;75.96
45327;BME280;31062;49.678;24.560;2022-07-06T01:03:56;97757.25;;;19.69;76.33
45327;BME280;31062;49.678;24.560;2022-07-06T01:06:42;97689.03;;;19.27;76.94
45327;BME280;31062;49.678;24.560;2022-07-06T01:09:30;97839.31;;;20.25;77.07
45327;BME280;31062;49.678;24.560;2022-07-06T01:12:16;97647.84;;;18.94;77.38
45327;BME280;31062;49.678;24.560;2022-07-06T01:15:05;97819.66;;;20.05;77.34
45327;BME280;31062;49.678;24.560;2022-07-06T01:17:51;97852.22;;;20.32;77.03
45327;BME280;31062;49.678;24.560;2022-07-06T01:20:40;97803.56;;;20.08;77.11
45327;BME280;31062;49.678;24.560;2022-07-06T01:23:26;97685.91;;;19.39;76.78
45327;BME280;31062;49.678;24.560;2022-07-06T01:26:20;97799.84;;;20.23;76.72
45327;BME280;31062;49.678;24.560;2022-07-06T01:29:06;97824.34;;;20.40;76.58
45327;BME280;31062;49.678;24.560;2022-07-06T01:31:51;97822.91;;;20.39;76.63
45327;BME280;31062;49.678;24.560;2022-07-06T01:34:36;97779.34;;;19.98;76.53
45327;BME280;31062;49.678;24.560;2022-07-06T01:37:22;97789.63;;;20.12;76.75
45327;BME280;31062;49.678;24.560;2022-07-06T01:40:09;97815.84;;;20.38;76.72
45327;BME280;31062;49.678;24.560;2022-07-06T01:42:55;97755.47;;;20.00;77.12
45327;BME280;31062;49.678;24.560;2022-07-06T01:45:41;97807.47;;;20.40;77.25
45327;BME280;31062;49.678;24.560;2022-07-06T01:48:27;97810.41;;;20.44;77.10
45327;BME280;31062;49.678;24.560;2022-07-06T01:51:12;97695.28;;;19.65;76.89
45327;BME280;31062;49.678;24.560;2022-07-06T01:53:59;97823.19;;;20.47;77.17
45327;BME280;31062;49.678;24.560;2022-07-06T01:56:46;97667.75;;;19.42;77.00
45327;BME280;31062;49.678;24.560;2022-07-06T01:59:32;97804.97;;;20.50;76.75
45327;BME280;31062;49.678;24.560;2022-07-06T02:02:17;97819.94;;;20.57;76.63
45327;BME280;31062;49.678;24.560;2022-07-06T02:05:03;97811.47;;;20.55;76.38
45327;BME280;31062;49.678;24.560;2022-07-06T02:07:49;97691.66;;;19.63;76.19
45327;BME280;31062;49.678;24.560;2022-07-06T02:10:35;97795.66;;;20.46;76.33
45327;BME280;31062;49.678;24.560;2022-07-06T02:13:21;97795.34;;;20.35;76.60
45327;BME280;31062;49.678;24.560;2022-07-06T02:16:06;97824.00;;;20.30;76.52
45327;BME280;31062;49.678;24.560;2022-07-06T02:18:53;97770.00;;;20.14;76.56
45327;BME280;31062;49.678;24.560;2022-07-06T02:21:39;97702.59;;;19.74;76.23
45327;BME280;31062;49.678;24.560;2022-07-06T02:24:25;97807.84;;;20.52;76.05
45327;BME280;31062;49.678;24.560;2022-07-06T02:27:11;97804.38;;;20.54;75.79
45327;BME280;31062;49.678;24.560;2022-07-06T02:29:57;97785.06;;;20.44;75.75
45327;BME280;31062;49.678;24.560;2022-07-06T02:32:42;97815.13;;;20.59;75.49
45327;BME280;31062;49.678;24.560;2022-07-06T02:35:28;97801.75;;;20.60;75.46
45327;BME280;31062;49.678;24.560;2022-07-06T02:38:14;97797.09;;;20.68;75.25
45327;BME280;31062;49.678;24.560;2022-07-06T02:41:00;97772.50;;;20.47;75.18
45327;BME280;31062;49.678;24.560;2022-07-06T02:43:47;97768.88;;;20.45;75.14
45327;BME280;31062;49.678;24.560;2022-07-06T02:46:34;97781.66;;;20.48;75.08
45327;BME280;31062;49.678;24.560;2022-07-06T02:49:20;97711.50;;;19.88;75.26
45327;BME280;31062;49.678;24.560;2022-07-06T02:52:05;97745.78;;;20.05;75.30
45327;BME280;31062;49.678;24.560;2022-07-06T02:54:51;97760.06;;;20.11;75.85
45327;BME280;31062;49.678;24.560;2022-07-06T02:57:37;97796.13;;;20.38;75.73
45327;BME280;31062;49.678;24.560;2022-07-06T03:00:24;97747.09;;;20.02;75.72
45327;BME280;31062;49.678;24.560;2022-07-06T03:03:11;97734.75;;;19.69;76.10
45327;BME280;31062;49.678;24.560;2022-07-06T03:05:57;97658.25;;;19.31;76.07
45327;BME280;31062;49.678;24.560;2022-07-06T03:08:43;97818.72;;;20.40;76.15
45327;BME280;31062;49.678;24.560;2022-07-06T03:11:29;97795.53;;;20.20;76.29
45327;BME280;31062;49.678;24.560;2022-07-06T03:14:15;97808.91;;;20.41;76.23
45327;BME280;31062;49.678;24.560;2022-07-06T03:17:05;97834.44;;;20.47;76.09
45327;BME280;31062;49.678;24.560;2022-07-06T03:19:50;97759.78;;;20.03;75.85
45327;BME280;31062;49.678;24.560;2022-07-06T03:22:37;97715.16;;;19.71;75.47
45327;BME280;31062;49.678;24.560;2022-07-06T03:25:24;97670.13;;;19.49;75.31
45327;BME280;31062;49.678;24.560;2022-07-06T03:28:11;97685.06;;;19.54;75.19
45327;BME280;31062;49.678;24.560;2022-07-06T03:30:57;97815.19;;;20.40;75.54
45327;BME280;31062;49.678;24.560;2022-07-06T03:33:43;97803.34;;;20.43;75.36
45327;BME280;31062;49.678;24.560;2022-07-06T03:36:29;97816.03;;;20.44;75.59
45327;BME280;31062;49.678;24.560;2022-07-06T03:39:23;97818.28;;;20.48;75.81
45327;BME280;31062;49.678;24.560;2022-07-06T03:42:09;97757.03;;;20.05;75.72
45327;BME280;31062;49.678;24.560;2022-07-06T03:44:56;97657.53;;;19.31;75.57
45327;BME280;31062;49.678;24.560;2022-07-06T03:47:43;97685.06;;;19.54;76.25
45327;BME280;31062;49.678;24.560;2022-07-06T03:50:29;97808.63;;;20.33;76.36
45327;BME280;31062;49.678;24.560;2022-07-06T03:53:16;97813.78;;;20.19;76.64
45327;BME280;31062;49.678;24.560;2022-07-06T03:56:02;97804.34;;;20.10;77.01
45327;BME280;31062;49.678;24.560;2022-07-06T03:59:29;97687.75;;;19.30;77.16
45327;BME280;31062;49.678;24.560;2022-07-06T04:02:15;97826.41;;;20.18;77.28
45327;BME280;31062;49.678;24.560;2022-07-06T04:05:01;97703.50;;;19.39;77.71
45327;BME280;31062;49.678;24.560;2022-07-06T04:07:47;97708.31;;;19.37;77.82
45327;BME280;31062;49.678;24.560;2022-07-06T04:10:34;97719.78;;;19.43;78.04
45327;BME280;31062;49.678;24.560;2022-07-06T04:13:20;97813.59;;;20.13;78.38
45327;BME280;31062;49.678;24.560;2022-07-06T04:16:07;97826.53;;;20.22;78.46
45327;BME280;31062;49.678;24.560;2022-07-06T04:18:53;97816.84;;;20.27;78.80
45327;BME280;31062;49.678;24.560;2022-07-06T04:21:39;97694.56;;;19.45;78.38
45327;BME280;31062;49.678;24.560;2022-07-06T04:24:24;97814.41;;;20.37;78.30
45327;BME280;31062;49.678;24.560;2022-07-06T04:27:10;97787.25;;;20.26;77.82
45327;BME280;31062;49.678;24.560;2022-07-06T04:29:57;97789.00;;;20.35;77.33
45327;BME280;31062;49.678;24.560;2022-07-06T04:32:42;97794.94;;;20.45;77.71
45327;BME280;31062;49.678;24.560;2022-07-06T04:35:29;97821.78;;;20.70;77.37
45327;BME280;31062;49.678;24.560;2022-07-06T04:38:16;97706.13;;;19.96;77.01
45327;BME280;31062;49.678;24.560;2022-07-06T04:41:03;97828.50;;;20.83;76.85
45327;BME280;31062;49.678;24.560;2022-07-06T04:43:50;97790.16;;;20.71;76.84
45327;BME280;31062;49.678;24.560;2022-07-06T04:46:39;97813.78;;;21.08;76.40
45327;BME280;31062;49.678;24.560;2022-07-06T04:49:25;97750.41;;;20.61;76.12
45327;BME280;31062;49.678;24.560;2022-07-06T04:52:11;97794.81;;;21.34;75.68
45327;BME280;31062;49.678;24.560;2022-07-06T04:54:57;97803.31;;;21.86;74.59
45327;BME280;31062;49.678;24.560;2022-07-06T04:57:43;97812.44;;;22.10;73.79
45327;BME280;31062;49.678;24.560;2022-07-06T05:00:31;97818.38;;;22.22;72.94
45327;BME280;31062;49.678;24.560;2022-07-06T05:03:20;97743.84;;;21.78;72.57
45327;BME280;31062;49.678;24.560;2022-07-06T05:06:07;97686.38;;;21.37;71.77
45327;BME280;31062;49.678;24.560;2022-07-06T05:08:53;97765.63;;;22.01;72.09
45327;BME280;31062;49.678;24.560;2022-07-06T05:11:40;97832.78;;;22.64;72.17
45327;BME280;31062;49.678;24.560;2022-07-06T05:14:27;97836.47;;;22.71;71.40
45327;BME280;31062;49.678;24.560;2022-07-06T05:17:14;97771.84;;;22.25;71.09
45327;BME280;31062;49.678;24.560;2022-07-06T05:20:00;97837.78;;;22.66;70.95
45327;BME280;31062;49.678;24.560;2022-07-06T05:22:51;97529.31;;;20.11;71.70
45327;BME280;31062;49.678;24.560;2022-07-06T05:25:41;97831.91;;;22.56;72.04
45327;BME280;31062;49.678;24.560;2022-07-06T05:28:27;97813.13;;;22.38;71.88
45327;BME280;31062;49.678;24.560;2022-07-06T05:31:21;97819.91;;;22.27;71.58
45327;BME280;31062;49.678;24.560;2022-07-06T05:34:13;97851.81;;;22.62;72.12
45327;BME280;31062;49.678;24.560;2022-07-06T05:36:59;97708.22;;;21.65;72.38
45327;BME280;31062;49.678;24.560;2022-07-06T05:39:46;97845.13;;;22.77;72.75
45327;BME280;31062;49.678;24.560;2022-07-06T05:42:33;97838.00;;;22.74;72.23
45327;BME280;31062;49.678;24.560;2022-07-06T05:45:18;97836.06;;;22.83;71.52
45327;BME280;31062;49.678;24.560;2022-07-06T05:48:05;97858.16;;;22.90;71.74
45327;BME280;31062;49.678;24.560;2022-07-06T05:51:10;97848.78;;;22.82;71.04
45327;BME280;31062;49.678;24.560;2022-07-06T05:53:58;97734.47;;;21.97;71.23
45327;BME280;31062;49.678;24.560;2022-07-06T05:56:44;97851.06;;;22.89;71.00
45327;BME280;31062;49.678;24.560;2022-07-06T05:59:30;97806.41;;;22.54;71.40
45327;BME280;31062;49.678;24.560;2022-07-06T06:02:16;97828.72;;;22.71;71.39
45327;BME280;31062;49.678;24.560;2022-07-06T06:05:03;97747.53;;;22.12;71.70
45327;BME280;31062;49.678;24.560;2022-07-06T06:07:49;97729.38;;;21.91;70.94
45327;BME280;31062;49.678;24.560;2022-07-06T06:10:40;97742.38;;;22.03;71.00
45327;BME280;31062;49.678;24.560;2022-07-06T06:13:30;97807.63;;;22.45;70.16
45327;BME280;31062;49.678;24.560;2022-07-06T06:16:17;97913.97;;;22.90;70.23
45327;BME280;31062;49.678;24.560;2022-07-06T06:19:03;97917.19;;;22.76;69.87
45327;BME280;31062;49.678;24.560;2022-07-06T06:21:49;97814.38;;;22.04;70.34
45327;BME280;31062;49.678;24.560;2022-07-06T06:24:37;97866.53;;;22.28;70.87
45327;BME280;31062;49.678;24.560;2022-07-06T06:27:24;97874.22;;;22.26;70.72
45327;BME280;31062;49.678;24.560;2022-07-06T06:30:13;97793.34;;;21.57;70.93
45327;BME280;31062;49.678;24.560;2022-07-06T06:35:52;97924.06;;;22.15;71.57
45327;BME280;31062;49.678;24.560;2022-07-06T06:38:40;97923.88;;;22.09;72.34
45327;BME280;31062;49.678;24.560;2022-07-06T06:41:26;97922.34;;;22.04;71.79
45327;BME280;31062;49.678;24.560;2022-07-06T06:44:13;97925.00;;;21.98;71.87
45327;BME280;31062;49.678;24.560;2022-07-06T06:46:59;97837.06;;;21.32;72.24
45327;BME280;31062;49.678;24.560;2022-07-06T06:49:46;97786.38;;;20.87;72.48
45327;BME280;31062;49.678;24.560;2022-07-06T06:52:31;97843.66;;;21.17;72.64
45327;BME280;31062;49.678;24.560;2022-07-06T06:55:25;97916.78;;;21.58;73.27
45327;BME280;31062;49.678;24.560;2022-07-06T06:58:11;97786.03;;;20.53;73.59
45327;BME280;31062;49.678;24.560;2022-07-06T07:00:57;97813.16;;;20.64;73.63
45327;BME280;31062;49.678;24.560;2022-07-06T07:03:42;97791.41;;;20.45;74.34
45327;BME280;31062;49.678;24.560;2022-07-06T07:06:28;97969.78;;;21.38;74.85
45327;BME280;31062;49.678;24.560;2022-07-06T07:09:13;97906.22;;;20.90;75.26
45327;BME280;31062;49.678;24.560;2022-07-06T07:11:59;97796.50;;;20.28;75.61
45327;BME280;31062;49.678;24.560;2022-07-06T07:14:45;97949.69;;;21.28;75.44
45327;BME280;31062;49.678;24.560;2022-07-06T07:17:30;97942.63;;;21.27;75.65
45327;BME280;31062;49.678;24.560;2022-07-06T07:20:16;97953.91;;;21.27;75.21
45327;BME280;31062;49.678;24.560;2022-07-06T07:23:02;97972.25;;;21.28;75.35
45327;BME280;31062;49.678;24.560;2022-07-06T07:25:49;97968.06;;;21.29;74.97
45327;BME280;31062;49.678;24.560;2022-07-06T07:28:36;97966.81;;;21.34;75.17
45327;BME280;31062;49.678;24.560;2022-07-06T07:31:21;97917.72;;;20.98;74.17
45327;BME280;31062;49.678;24.560;2022-07-06T07:34:07;97639.00;;;18.82;73.97
45327;BME280;31062;49.678;24.560;2022-07-06T07:36:55;97972.41;;;21.32;74.13
45327;BME280;31062;49.678;24.560;2022-07-06T07:39:46;97978.03;;;21.32;74.21
45327;BME280;31062;49.678;24.560;2022-07-06T07:42:33;97839.31;;;20.25;74.05
45327;BME280;31062;49.678;24.560;2022-07-06T07:45:19;97983.53;;;21.28;74.10
45327;BME280;31062;49.678;24.560;2022-07-06T07:48:06;97986.31;;;21.26;74.25
45327;BME280;31062;49.678;24.560;2022-07-06T07:50:52;97964.13;;;20.95;74.47
45327;BME280;31062;49.678;24.560;2022-07-06T07:53:38;98008.59;;;21.18;74.66
45327;BME280;31062;49.678;24.560;2022-07-06T07:56:25;97978.28;;;20.97;74.93
45327;BME280;31062;49.678;24.560;2022-07-06T07:59:10;97864.09;;;20.09;75.02
45327;BME280;31062;49.678;24.560;2022-07-06T08:01:57;98010.72;;;20.98;75.09
45327;BME280;31062;49.678;24.560;2022-07-06T08:04:42;98026.97;;;20.99;75.26
45327;BME280;31062;49.678;24.560;2022-07-06T08:07:28;97953.97;;;20.44;75.60
45327;BME280;31062;49.678;24.560;2022-07-06T08:10:15;97944.31;;;20.49;75.71
45327;BME280;31062;49.678;24.560;2022-07-06T08:13:01;98023.59;;;21.03;75.94
45327;BME280;31062;49.678;24.560;2022-07-06T08:15:48;97917.63;;;20.11;75.92
45327;BME280;31062;49.678;24.560;2022-07-06T08:18:34;98035.31;;;20.75;75.53
45327;BME280;31062;49.678;24.560;2022-07-06T08:21:20;98045.53;;;20.45;75.87
45327;BME280;31062;49.678;24.560;2022-07-06T08:24:11;98057.47;;;20.26;76.41
45327;BME280;31062;49.678;24.560;2022-07-06T08:26:57;98039.72;;;20.02;77.26
45327;BME280;31062;49.678;24.560;2022-07-06T08:29:44;97991.72;;;19.60;78.23
45327;BME280;31062;49.678;24.560;2022-07-06T08:32:30;97895.72;;;18.77;78.81
45327;BME280;31062;49.678;24.560;2022-07-06T08:35:36;98078.63;;;19.89;79.35
45327;BME280;31062;49.678;24.560;2022-07-06T08:38:22;97941.63;;;19.01;80.43
45327;BME280;31062;49.678;24.560;2022-07-06T08:41:08;97959.69;;;19.14;81.03
45327;BME280;31062;49.678;24.560;2022-07-06T08:43:55;97918.66;;;18.89;80.93
45327;BME280;31062;49.678;24.560;2022-07-06T08:46:42;98072.31;;;20.09;79.74
45327;BME280;31062;49.678;24.560;2022-07-06T08:49:33;98069.72;;;20.15;79.02
45327;BME280;31062;49.678;24.560;2022-07-06T08:52:26;98081.88;;;20.19;78.88
45327;BME280;31062;49.678;24.560;2022-07-06T08:55:17;98080.72;;;20.26;78.74
45327;BME280;31062;49.678;24.560;2022-07-06T08:58:07;98081.59;;;20.31;77.97
45327;BME280;31062;49.678;24.560;2022-07-06T09:00:58;98041.13;;;20.03;77.45
45327;BME280;31062;49.678;24.560;2022-07-06T09:03:51;98097.50;;;20.42;76.46
45327;BME280;31062;49.678;24.560;2022-07-06T09:06:42;98096.78;;;20.42;76.61
45327;BME280;31062;49.678;24.560;2022-07-06T09:09:30;98104.84;;;20.31;76.43
45327;BME280;31062;49.678;24.560;2022-07-06T09:12:18;98107.19;;;20.57;75.61
45327;BME280;31062;49.678;24.560;2022-07-06T09:15:06;98114.41;;;20.62;75.61
45327;BME280;31062;49.678;24.560;2022-07-06T09:17:56;98129.88;;;20.61;75.79
45327;BME280;31062;49.678;24.560;2022-07-06T09:20:46;98082.59;;;20.20;75.52
45327;BME280;31062;49.678;24.560;2022-07-06T09:23:32;98121.50;;;20.43;76.00
45327;BME280;31062;49.678;24.560;2022-07-06T09:26:19;98100.75;;;20.17;76.60
45327;BME280;31062;49.678;24.560;2022-07-06T09:29:05;98116.50;;;20.24;76.76
45327;BME280;31062;49.678;24.560;2022-07-06T09:31:59;98096.75;;;20.04;77.54
45327;BME280;31062;49.678;24.560;2022-07-06T09:34:46;98124.00;;;20.17;77.68
45327;BME280;31062;49.678;24.560;2022-07-06T09:37:32;98123.19;;;20.15;78.36
45327;BME280;31062;49.678;24.560;2022-07-06T09:40:19;98120.38;;;20.15;78.16
45327;BME280;31062;49.678;24.560;2022-07-06T09:43:15;98109.84;;;20.15;78.13
45327;BME280;31062;49.678;24.560;2022-07-06T09:46:02;98107.75;;;20.16;78.16
45327;BME280;31062;49.678;24.560;2022-07-06T09:48:50;97947.56;;;19.09;76.65
45327;BME280;31062;49.678;24.560;2022-07-06T09:51:38;97933.69;;;19.13;75.54
45327;BME280;31062;49.678;24.560;2022-07-06T09:54:24;98089.81;;;20.25;74.77
45327;BME280;31062;49.678;24.560;2022-07-06T09:57:10;98097.13;;;20.14;73.82
45327;BME280;31062;49.678;24.560;2022-07-06T09:59:58;97995.06;;;19.74;73.87
45327;BME280;31062;49.678;24.560;2022-07-06T10:02:43;98068.59;;;20.22;73.41
45327;BME280;31062;49.678;24.560;2022-07-06T10:05:30;97884.31;;;19.08;72.23
45327;BME280;31062;49.678;24.560;2022-07-06T10:08:17;97970.88;;;19.47;72.88
45327;BME280;31062;49.678;24.560;2022-07-06T10:11:05;98048.97;;;20.24;73.28
45327;BME280;31062;49.678;24.560;2022-07-06T10:13:56;97927.47;;;19.35;72.38
45327;BME280;31062;49.678;24.560;2022-07-06T10:16:43;97925.88;;;19.30;72.45
45327;BME280;31062;49.678;24.560;2022-07-06T10:19:31;98095.94;;;20.37;72.55
45327;BME280;31062;49.678;24.560;2022-07-06T10:22:19;98091.72;;;20.38;71.87
45327;BME280;31062;49.678;24.560;2022-07-06T10:25:07;98091.56;;;20.34;71.60
45327;BME280;31062;49.678;24.560;2022-07-06T10:27:54;98096.78;;;20.42;71.80
45327;BME280;31062;49.678;24.560;2022-07-06T10:30:45;98118.59;;;20.41;70.52
45327;BME280;31062;49.678;24.560;2022-07-06T10:33:35;98125.50;;;20.38;69.02
45327;BME280;31062;49.678;24.560;2022-07-06T10:36:29;98128.00;;;20.30;69.25
45327;BME280;31062;49.678;24.560;2022-07-06T10:39:15;98133.94;;;20.20;69.72
45327;BME280;31062;49.678;24.560;2022-07-06T10:42:58;98159.28;;;20.20;68.61
45327;BME280;31062;49.678;24.560;2022-07-06T10:48:37;98153.63;;;20.01;69.07
45327;BME280;31062;49.678;24.560;2022-07-06T10:51:26;98139.94;;;19.75;69.80
45327;BME280;31062;49.678;24.560;2022-07-06T10:54:12;98037.13;;;19.01;69.81
45327;BME280;31062;49.678;24.560;2022-07-06T10:57:08;98166.97;;;20.00;68.37
45327;BME280;31062;49.678;24.560;2022-07-06T11:00:05;98170.41;;;19.98;68.60
45327;BME280;31062;49.678;24.560;2022-07-06T11:02:51;98172.41;;;19.96;69.24
45327;BME280;31062;49.678;24.560;2022-07-06T11:05:41;98175.88;;;19.94;68.93
45327;BME280;31062;49.678;24.560;2022-07-06T11:08:50;98198.38;;;19.94;69.37
45327;BME280;31062;49.678;24.560;2022-07-06T11:11:39;98181.50;;;19.94;69.18
45327;BME280;31062;49.678;24.560;2022-07-06T11:14:34;98183.44;;;19.90;68.62
45327;BME280;31062;49.678;24.560;2022-07-06T11:17:23;98161.09;;;19.76;67.89
45327;BME280;31062;49.678;24.560;2022-07-06T11:20:11;98170.72;;;19.71;67.41
45327;BME280;31062;49.678;24.560;2022-07-06T11:22:58;98167.50;;;19.61;67.05
45327;BME280;31062;49.678;24.560;2022-07-06T11:25:44;98131.31;;;19.36;67.85
45327;BME280;31062;49.678;24.560;2022-07-06T11:28:31;98165.88;;;19.23;67.92
45327;BME280;31062;49.678;24.560;2022-07-06T11:31:17;98174.06;;;19.50;69.03
45327;BME280;31062;49.678;24.560;2022-07-06T11:34:05;98179.78;;;19.52;69.38
45327;BME280;31062;49.678;24.560;2022-07-06T11:36:59;98026.41;;;18.47;69.23
45327;BME280;31062;49.678;24.560;2022-07-06T11:39:46;98172.06;;;19.52;69.01
45327;BME280;31062;49.678;24.560;2022-07-06T11:42:33;98158.66;;;19.51;70.11
45327;BME280;31062;49.678;24.560;2022-07-06T11:45:26;98128.31;;;19.32;70.81
45327;BME280;31062;49.678;24.560;2022-07-06T11:48:12;98132.72;;;19.37;69.84
45327;BME280;31062;49.678;24.560;2022-07-06T11:51:02;98124.22;;;19.35;69.82
45327;BME280;31062;49.678;24.560;2022-07-06T11:53:51;98131.13;;;19.32;70.49
45327;BME280;31062;49.678;24.560;2022-07-06T11:59:38;98110.16;;;19.17;69.91
45327;BME280;31062;49.678;24.560;2022-07-06T12:02:24;98147.25;;;19.47;69.49
45327;BME280;31062;49.678;24.560;2022-07-06T12:05:11;98161.47;;;19.51;70.44
45327;BME280;31062;49.678;24.560;2022-07-06T12:08:06;98045.56;;;18.68;72.19
45327;BME280;31062;49.678;24.560;2022-07-06T12:10:54;98176.50;;;19.58;72.41
45327;BME280;31062;49.678;24.560;2022-07-06T12:13:41;98142.53;;;19.36;72.07
45327;BME280;31062;49.678;24.560;2022-07-06T12:16:33;98028.22;;;18.56;71.92
45327;BME280;31062;49.678;24.560;2022-07-06T12:19:22;98134.88;;;19.21;71.89
45327;BME280;31062;49.678;24.560;2022-07-06T12:22:10;98146.63;;;19.33;71.66
45327;BME280;31062;49.678;24.560;2022-07-06T12:24:56;98195.06;;;19.65;71.45
45327;BME280;31062;49.678;24.560;2022-07-06T12:27:50;98198.34;;;19.59;71.51
45327;BME280;31062;49.678;24.560;2022-07-06T12:30:45;98197.06;;;19.62;70.93
45327;BME280;31062;49.678;24.560;2022-07-06T12:33:31;98199.47;;;19.52;70.81
45327;BME280;31062;49.678;24.560;2022-07-06T12:36:17;98165.41;;;19.28;70.69
45327;BME280;31062;49.678;24.560;2022-07-06T12:39:10;98110.94;;;18.86;70.25
45327;BME280;31062;49.678;24.560;2022-07-06T12:42:02;98216.59;;;19.58;68.79
45327;BME280;31062;49.678;24.560;2022-07-06T12:44:50;98051.56;;;18.45;68.95
45327;BME280;31062;49.678;24.560;2022-07-06T12:47:36;98144.06;;;19.05;68.53
45327;BME280;31062;49.678;24.560;2022-07-06T12:50:37;98090.66;;;18.72;68.56
45327;BME280;31062;49.678;24.560;2022-07-06T12:53:29;98234.81;;;19.57;68.46
45327;BME280;31062;49.678;24.560;2022-07-06T12:56:17;98199.28;;;19.48;68.18
45327;BME280;31062;49.678;24.560;2022-07-06T12:59:06;98219.50;;;19.60;68.01
45327;BME280;31062;49.678;24.560;2022-07-06T13:01:53;98219.56;;;19.62;67.87
45327;BME280;31062;49.678;24.560;2022-07-06T13:05:03;98208.31;;;19.62;68.44
45327;BME280;31062;49.678;24.560;2022-07-06T13:07:50;98231.91;;;19.55;68.40
45327;BME280;31062;49.678;24.560;2022-07-06T13:10:35;98210.66;;;19.68;68.89
45327;BME280;31062;49.678;24.560;2022-07-06T13:13:22;98204.38;;;19.69;68.22
45327;BME280;31062;49.678;24.560;2022-07-06T13:16:09;98066.50;;;18.65;67.96
45327;BME280;31062;49.678;24.560;2022-07-06T13:18:56;98215.53;;;19.67;67.82
45327;BME280;31062;49.678;24.560;2022-07-06T13:21:46;98064.34;;;18.63;67.61
45327;BME280;31062;49.678;24.560;2022-07-06T13:24:31;98217.56;;;19.65;66.91
45327;BME280;31062;49.678;24.560;2022-07-06T13:27:23;98215.38;;;19.63;66.95
45327;BME280;31062;49.678;24.560;2022-07-06T13:30:10;98208.50;;;19.66;67.01
45327;BME280;31062;49.678;24.560;2022-07-06T13:32:57;98060.25;;;18.66;66.58
45327;BME280;31062;49.678;24.560;2022-07-06T13:35:46;98069.31;;;18.65;66.25
45327;BME280;31062;49.678;24.560;2022-07-06T13:38:32;98222.56;;;19.66;66.07
45327;BME280;31062;49.678;24.560;2022-07-06T13:41:18;98200.66;;;19.47;67.05
45327;BME280;31062;49.678;24.560;2022-07-06T13:44:03;98236.63;;;19.66;66.40
45327;BME280;31062;49.678;24.560;2022-07-06T13:46:51;98203.19;;;19.41;66.42
45327;BME280;31062;49.678;24.560;2022-07-06T13:49:36;98098.25;;;18.54;65.98
45327;BME280;31062;49.678;24.560;2022-07-06T13:52:22;98183.56;;;19.09;66.60
45327;BME280;31062;49.678;24.560;2022-07-06T13:55:08;98226.50;;;19.28;66.79
45327;BME280;31062;49.678;24.560;2022-07-06T13:57:55;98216.34;;;19.21;67.00
45327;BME280;31062;49.678;24.560;2022-07-06T14:00:41;98242.47;;;19.23;66.93
45327;BME280;31062;49.678;24.560;2022-07-06T14:03:27;98222.63;;;19.03;68.38
45327;BME280;31062;49.678;24.560;2022-07-06T14:06:15;98226.53;;;18.96;67.39
45327;BME280;31062;49.678;24.560;2022-07-06T14:09:02;98203.63;;;18.70;68.12
45327;BME280;31062;49.678;24.560;2022-07-06T14:11:48;98144.81;;;18.27;68.51
45327;BME280;31062;49.678;24.560;2022-07-06T14:14:34;98276.00;;;19.19;68.62
45327;BME280;31062;49.678;24.560;2022-07-06T14:17:23;98257.69;;;19.02;68.81
45327;BME280;31062;49.678;24.560;2022-07-06T14:20:09;98271.66;;;19.16;69.10
45327;BME280;31062;49.678;24.560;2022-07-06T14:22:56;98136.72;;;18.20;69.67
45327;BME280;31062;49.678;24.560;2022-07-06T14:25:43;98273.84;;;19.17;69.58
45327;BME280;31062;49.678;24.560;2022-07-06T14:28:32;98291.78;;;19.10;69.54
45327;BME280;31062;49.678;24.560;2022-07-06T14:31:18;98244.66;;;18.93;68.78
45327;BME280;31062;49.678;24.560;2022-07-06T14:34:06;98133.91;;;18.04;68.93
45327;BME280;31062;49.678;24.560;2022-07-06T14:36:52;98276.00;;;19.03;69.14
45327;BME280;31062;49.678;24.560;2022-07-06T14:39:38;98125.28;;;18.00;68.72
45327;BME280;31062;49.678;24.560;2022-07-06T14:42:24;98237.94;;;18.69;69.22
45327;BME280;31062;49.678;24.560;2022-07-06T14:45:10;98217.84;;;18.59;68.65
45327;BME280;31062;49.678;24.560;2022-07-06T14:47:56;98265.69;;;18.92;68.83
45327;BME280;31062;49.678;24.560;2022-07-06T14:50:42;98245.72;;;18.55;68.96